createdAt,value
2017-10-18T00:00:26.227Z,13.30
2017-10-18T00:02:54.219Z,13.30
2017-10-18T00:05:21.799Z,13.30
2017-10-18T00:07:49.350Z,13.30
2017-10-18T00:10:17.729Z,13.30
2017-10-18T00:12:45.473Z,13.30
2017-10-18T00:15:13.091Z,13.20
2017-10-18T00:17:40.645Z,13.30
2017-10-18T00:20:09.347Z,13.20
2017-10-18T00:22:36.954Z,13.10
2017-10-18T00:25:04.529Z,13.10
2017-10-18T00:27:32.161Z,13.10
2017-10-18T00:29:59.750Z,13.10
2017-10-18T00:32:27.381Z,13.10
2017-10-18T00:34:55.567Z,13.10
2017-10-18T00:37:23.313Z,13.10
2017-10-18T00:39:50.915Z,13.10
2017-10-18T00:42:18.831Z,13.00
2017-10-18T00:47:20.972Z,13.10
2017-10-18T00:49:49.299Z,13.00
2017-10-18T00:52:17.331Z,13.00
2017-10-18T00:54:44.928Z,13.00
2017-10-18T00:57:12.519Z,13.00
2017-10-18T00:59:42.310Z,13.00
2017-10-18T01:02:09.975Z,13.00
2017-10-18T01:04:37.586Z,12.90
2017-10-18T01:07:05.385Z,12.90
2017-10-18T01:09:34.208Z,12.90
2017-10-18T01:12:02.539Z,12.90
2017-10-18T01:14:30.168Z,12.80
2017-10-18T01:16:59.549Z,12.80
2017-10-18T01:19:27.270Z,12.80
2017-10-18T01:21:54.868Z,12.80
2017-10-18T01:24:22.535Z,12.80
2017-10-18T01:26:50.209Z,12.80
2017-10-18T01:29:20.085Z,12.70
2017-10-18T01:31:48.042Z,12.70
2017-10-18T01:34:15.662Z,12.70
2017-10-18T01:42:24.666Z,12.60
2017-10-18T01:44:52.217Z,12.60
2017-10-18T01:47:19.756Z,12.60
2017-10-18T01:49:47.417Z,12.60
2017-10-18T01:52:15.009Z,12.60
2017-10-18T01:54:42.564Z,12.50
2017-10-18T01:57:10.166Z,12.50
2017-10-18T01:59:37.760Z,12.50
2017-10-18T02:02:05.304Z,12.50
2017-10-18T02:04:33.665Z,12.40
2017-10-18T02:07:01.205Z,12.40
2017-10-18T02:09:28.773Z,12.40
2017-10-18T02:11:57.865Z,12.40
2017-10-18T02:14:25.443Z,12.40
2017-10-18T02:16:53.047Z,12.40
2017-10-18T02:19:20.596Z,12.40
2017-10-18T02:21:48.150Z,12.40
2017-10-18T02:24:15.746Z,12.40
2017-10-18T02:26:43.358Z,12.40
2017-10-18T02:29:12.000Z,12.40
2017-10-18T02:31:39.548Z,12.40
2017-10-18T02:34:07.114Z,12.40
2017-10-18T02:36:34.689Z,12.30
2017-10-18T02:39:02.233Z,12.30
2017-10-18T02:41:30.115Z,12.30
2017-10-18T02:43:57.668Z,12.30
2017-10-18T02:46:25.294Z,12.20
2017-10-18T02:48:52.898Z,12.20
2017-10-18T02:51:20.525Z,12.10
2017-10-18T02:53:48.410Z,12.10
2017-10-18T02:56:15.994Z,12.10
2017-10-18T02:58:43.541Z,12.00
2017-10-18T03:01:11.126Z,12.00
2017-10-18T03:03:38.688Z,12.00
2017-10-18T03:06:07.343Z,12.00
2017-10-18T03:08:34.934Z,11.90
2017-10-18T03:11:02.480Z,12.00
2017-10-18T03:13:30.086Z,12.00
2017-10-18T03:15:57.631Z,11.90
2017-10-18T03:18:25.218Z,11.90
2017-10-18T03:20:52.779Z,11.90
2017-10-18T03:23:20.354Z,11.90
2017-10-18T03:25:47.909Z,11.90
2017-10-18T03:28:15.458Z,11.90
2017-10-18T03:30:43.072Z,11.90
2017-10-18T03:33:10.613Z,11.80
2017-10-18T03:35:38.160Z,11.80
2017-10-18T03:38:05.752Z,11.80
2017-10-18T03:40:34.076Z,11.80
2017-10-18T03:43:01.677Z,11.80
2017-10-18T03:45:29.224Z,11.80
2017-10-18T03:47:56.777Z,11.80
2017-10-18T03:50:24.375Z,11.80
2017-10-18T03:52:51.931Z,11.80
2017-10-18T03:55:20.566Z,11.80
2017-10-18T03:57:48.126Z,11.80
2017-10-18T04:00:15.693Z,11.80
2017-10-18T04:02:43.632Z,11.80
2017-10-18T04:05:11.164Z,11.80
2017-10-18T04:07:38.733Z,11.70
2017-10-18T04:10:06.345Z,11.70
2017-10-18T04:12:33.911Z,11.70
2017-10-18T04:15:01.514Z,11.70
2017-10-18T04:17:29.078Z,11.60
2017-10-18T04:19:57.367Z,11.60
2017-10-18T04:22:24.963Z,11.60
2017-10-18T04:24:52.524Z,11.60
2017-10-18T04:27:20.121Z,11.60
2017-10-18T04:29:47.669Z,11.70
2017-10-18T04:32:15.984Z,11.70
2017-10-18T04:34:43.569Z,11.70
2017-10-18T04:37:11.177Z,11.70
2017-10-18T04:39:39.533Z,11.70
2017-10-18T04:42:07.862Z,11.70
2017-10-18T04:44:35.439Z,11.60
2017-10-18T04:47:03.039Z,11.60
2017-10-18T04:49:30.596Z,11.60
2017-10-18T04:51:58.970Z,11.70
2017-10-18T04:54:26.560Z,11.70
2017-10-18T04:56:54.112Z,11.70
2017-10-18T04:59:21.702Z,11.70
2017-10-18T05:01:49.254Z,11.70
2017-10-18T05:04:16.842Z,11.70
2017-10-18T05:06:44.386Z,11.70
2017-10-18T05:09:11.925Z,11.70
2017-10-18T05:11:39.737Z,11.70
2017-10-18T05:14:07.296Z,11.70
2017-10-18T05:16:34.919Z,11.70
2017-10-18T05:19:02.509Z,11.70
2017-10-18T05:21:30.066Z,11.70
2017-10-18T05:23:57.662Z,11.70
2017-10-18T05:26:26.143Z,11.70
2017-10-18T05:28:54.509Z,11.70
2017-10-18T05:31:22.068Z,11.70
2017-10-18T05:33:49.633Z,11.80
2017-10-18T05:36:17.232Z,11.80
2017-10-18T05:38:45.045Z,11.80
2017-10-18T05:41:12.740Z,11.70
2017-10-18T05:43:41.090Z,11.70
2017-10-18T05:46:08.662Z,11.80
2017-10-18T05:48:37.003Z,11.80
2017-10-18T05:51:04.574Z,11.80
2017-10-18T05:53:32.173Z,11.80
2017-10-18T05:55:59.725Z,11.80
2017-10-18T05:58:28.075Z,11.80
2017-10-18T06:00:55.678Z,11.80
2017-10-18T06:03:23.266Z,11.80
2017-10-18T06:05:58.413Z,11.90
2017-10-18T06:08:25.971Z,11.90
2017-10-18T06:10:53.697Z,11.90
2017-10-18T06:13:21.286Z,11.90
2017-10-18T06:15:48.850Z,12.00
2017-10-18T06:18:16.428Z,12.00
2017-10-18T06:20:43.997Z,12.00
2017-10-18T06:23:11.558Z,12.00
2017-10-18T06:25:39.255Z,12.10
2017-10-18T06:28:07.603Z,12.10
2017-10-18T06:30:35.222Z,12.10
2017-10-18T06:33:02.780Z,12.20
2017-10-18T06:35:30.329Z,12.20
2017-10-18T06:37:57.944Z,12.20
2017-10-18T06:40:25.520Z,12.30
2017-10-18T06:42:53.131Z,12.30
2017-10-18T06:45:20.921Z,12.40
2017-10-18T06:47:48.476Z,12.40
2017-10-18T06:50:16.061Z,12.50
2017-10-18T06:52:44.373Z,12.50
2017-10-18T06:55:11.994Z,12.50
2017-10-18T06:57:40.315Z,12.60
2017-10-18T07:00:07.857Z,12.60
2017-10-18T07:02:35.679Z,12.70
2017-10-18T07:05:03.269Z,12.70
2017-10-18T07:07:31.637Z,12.80
2017-10-18T07:09:59.405Z,12.80
2017-10-18T07:12:27.743Z,12.90
2017-10-18T07:14:55.341Z,12.90
2017-10-18T07:17:23.677Z,13.00
2017-10-18T07:19:51.341Z,13.00
2017-10-18T07:22:18.891Z,13.10
2017-10-18T07:24:46.661Z,13.10
2017-10-18T07:27:14.256Z,13.20
2017-10-18T07:29:42.587Z,13.30
2017-10-18T07:32:10.202Z,13.30
2017-10-18T07:34:37.802Z,13.40
2017-10-18T07:37:05.366Z,13.50
2017-10-18T07:39:32.967Z,13.50
2017-10-18T07:42:00.599Z,13.50
2017-10-18T07:44:28.479Z,13.60
2017-10-18T07:46:56.135Z,13.70
2017-10-18T07:49:23.708Z,13.70
2017-10-18T07:51:51.500Z,13.80
2017-10-18T07:54:19.820Z,14.00
2017-10-18T07:56:47.418Z,13.90
2017-10-18T07:59:14.986Z,14.00
2017-10-18T08:01:42.532Z,14.10
2017-10-18T08:04:10.134Z,14.20
2017-10-18T08:06:37.703Z,14.20
2017-10-18T08:09:05.321Z,14.30
2017-10-18T08:11:32.873Z,14.40
2017-10-18T08:14:00.413Z,14.40
2017-10-18T08:16:28.014Z,14.40
2017-10-18T08:18:55.850Z,14.50
2017-10-18T08:21:23.762Z,14.60
2017-10-18T08:23:51.341Z,14.70
2017-10-18T08:26:18.907Z,14.80
2017-10-18T08:28:46.494Z,14.90
2017-10-18T08:31:14.086Z,14.90
2017-10-18T08:33:42.437Z,15.00
2017-10-18T08:36:09.984Z,15.00
2017-10-18T08:38:37.557Z,15.10
2017-10-18T08:41:05.162Z,15.20
2017-10-18T08:43:33.283Z,15.30
2017-10-18T08:46:01.255Z,15.40
2017-10-18T08:48:28.769Z,15.50
2017-10-18T08:50:56.356Z,15.60
2017-10-18T08:53:24.003Z,15.80
2017-10-18T08:55:51.734Z,15.90
2017-10-18T08:58:20.103Z,16.00
2017-10-18T09:00:47.719Z,16.00
2017-10-18T09:03:15.280Z,16.00
2017-10-18T09:05:42.893Z,16.10
2017-10-18T09:08:10.448Z,16.10
2017-10-18T09:10:38.807Z,16.20
2017-10-18T09:13:06.350Z,16.20
2017-10-18T09:15:33.899Z,16.30
2017-10-18T09:18:01.448Z,16.40
2017-10-18T09:20:29.025Z,16.40
2017-10-18T09:22:57.206Z,16.60
2017-10-18T09:25:24.754Z,16.60
2017-10-18T09:27:52.321Z,16.70
2017-10-18T09:30:19.899Z,16.80
2017-10-18T09:32:48.377Z,16.90
2017-10-18T09:35:15.962Z,17.10
2017-10-18T09:37:43.524Z,17.20
2017-10-18T09:40:11.204Z,17.30
2017-10-18T09:42:38.799Z,17.40
2017-10-18T09:45:06.370Z,17.50
2017-10-18T09:47:34.000Z,17.50
2017-10-18T09:50:01.560Z,17.60
2017-10-18T09:52:29.128Z,17.70
2017-10-18T09:54:56.729Z,17.70
2017-10-18T09:57:24.323Z,17.80
2017-10-18T09:59:52.026Z,17.80
2017-10-18T10:02:19.902Z,17.80
2017-10-18T10:04:47.463Z,17.80
2017-10-18T10:07:15.061Z,17.80
2017-10-18T10:09:42.614Z,17.80
2017-10-18T10:12:10.220Z,17.80
2017-10-18T10:14:37.788Z,17.90
2017-10-18T10:17:05.347Z,17.90
2017-10-18T10:19:33.184Z,17.90
2017-10-18T10:22:00.766Z,17.80
2017-10-18T10:24:28.734Z,17.80
2017-10-18T10:26:56.327Z,17.90
2017-10-18T10:29:23.905Z,17.90
2017-10-18T10:31:52.311Z,17.90
2017-10-18T10:34:19.921Z,17.90
2017-10-18T10:36:49.030Z,17.90
2017-10-18T10:39:16.587Z,17.90
2017-10-18T10:41:44.902Z,17.80
2017-10-18T10:44:12.505Z,17.80
2017-10-18T10:46:40.065Z,17.70
2017-10-18T10:49:07.675Z,17.70
2017-10-18T10:51:35.248Z,17.70
2017-10-18T10:54:02.813Z,17.70
2017-10-18T10:56:30.384Z,17.70
2017-10-18T10:58:57.966Z,17.70
2017-10-18T11:01:25.569Z,17.70
2017-10-18T11:03:53.155Z,17.70
2017-10-18T11:06:20.705Z,17.60
2017-10-18T11:08:48.433Z,17.60
2017-10-18T11:11:15.992Z,17.60
2017-10-18T11:13:44.384Z,17.50
2017-10-18T11:16:11.941Z,17.50
2017-10-18T11:18:40.249Z,17.30
2017-10-18T11:21:07.882Z,17.30
2017-10-18T11:23:35.437Z,17.20
2017-10-18T11:26:03.046Z,17.20
2017-10-18T11:28:30.604Z,17.20
2017-10-18T11:30:58.154Z,17.20
2017-10-18T11:33:25.755Z,17.20
2017-10-18T11:35:54.086Z,17.20
2017-10-18T11:38:21.698Z,17.20
2017-10-18T11:40:50.037Z,17.20
2017-10-18T11:43:17.779Z,17.20
2017-10-18T11:45:45.382Z,17.20
2017-10-18T11:48:14.447Z,17.20
2017-10-18T11:50:42.654Z,17.20
2017-10-18T11:53:10.302Z,17.20
2017-10-18T11:55:37.900Z,17.10
2017-10-18T11:58:05.506Z,17.10
2017-10-18T12:00:33.071Z,17.00
2017-10-18T12:03:00.711Z,17.10
2017-10-18T12:05:28.280Z,17.10
2017-10-18T12:07:55.894Z,17.10
2017-10-18T12:10:24.259Z,17.00
2017-10-18T12:12:51.817Z,17.00
2017-10-18T12:15:19.427Z,17.00
2017-10-18T12:17:46.973Z,17.00
2017-10-18T12:20:14.542Z,17.10
2017-10-18T12:22:42.234Z,17.10
2017-10-18T12:25:09.793Z,17.10
2017-10-18T12:27:38.045Z,17.20
2017-10-18T12:30:05.643Z,17.30
2017-10-18T12:32:33.207Z,17.40
2017-10-18T12:35:02.331Z,17.50
2017-10-18T12:37:29.905Z,17.50
2017-10-18T12:39:57.775Z,17.50
2017-10-18T12:42:25.329Z,17.60
2017-10-18T12:44:52.924Z,17.60
2017-10-18T12:47:20.537Z,17.70
2017-10-18T12:49:49.018Z,17.70
2017-10-18T12:52:17.674Z,17.70
2017-10-18T12:54:45.230Z,17.70
2017-10-18T12:57:12.816Z,17.70
2017-10-18T12:59:40.484Z,17.70
2017-10-18T13:02:08.823Z,17.80
2017-10-18T13:04:36.432Z,17.70
2017-10-18T13:07:04.768Z,17.80
2017-10-18T13:09:32.327Z,17.80
2017-10-18T13:11:59.934Z,17.80
2017-10-18T13:14:27.525Z,17.70
2017-10-18T13:16:55.205Z,17.70
2017-10-18T13:19:22.766Z,17.70
2017-10-18T13:21:51.675Z,17.70
2017-10-18T13:24:19.283Z,17.70
2017-10-18T13:26:46.843Z,17.70
2017-10-18T13:29:14.452Z,17.70
2017-10-18T13:31:42.808Z,17.80
2017-10-18T13:34:10.413Z,17.70
2017-10-18T13:36:38.898Z,17.70
2017-10-18T13:39:07.256Z,17.70
2017-10-18T13:41:34.861Z,17.70
2017-10-18T13:44:02.435Z,17.70
2017-10-18T13:46:30.003Z,17.70
2017-10-18T13:48:57.722Z,17.70
2017-10-18T13:51:25.277Z,17.70
2017-10-18T13:53:54.216Z,17.70
2017-10-18T13:56:21.794Z,17.70
2017-10-18T13:58:49.349Z,17.70
2017-10-18T14:01:16.949Z,17.70
2017-10-18T14:03:45.257Z,17.70
2017-10-18T14:06:12.865Z,17.70
2017-10-18T14:08:41.201Z,17.70
2017-10-18T14:11:08.779Z,17.80
2017-10-18T14:13:36.388Z,17.80
2017-10-18T14:16:04.126Z,17.80
2017-10-18T14:18:32.491Z,17.80
2017-10-18T14:21:00.046Z,17.80
2017-10-18T14:23:27.621Z,17.80
2017-10-18T14:25:55.218Z,17.80
2017-10-18T14:28:22.789Z,17.90
2017-10-18T14:30:50.385Z,17.90
2017-10-18T14:33:17.965Z,17.90
2017-10-18T14:35:46.307Z,17.80
2017-10-18T14:38:13.898Z,17.80
2017-10-18T14:40:42.249Z,17.80
2017-10-18T14:43:09.880Z,17.80
2017-10-18T14:45:37.449Z,17.70
2017-10-18T14:48:05.019Z,17.70
2017-10-18T14:50:32.660Z,17.70
2017-10-18T14:53:00.342Z,17.70
2017-10-18T14:55:27.985Z,17.70
2017-10-18T14:57:55.549Z,17.70
2017-10-18T15:00:23.097Z,17.70
2017-10-18T15:02:50.731Z,17.70
2017-10-18T15:05:19.048Z,17.60
2017-10-18T15:07:46.671Z,17.60
2017-10-18T15:10:14.985Z,17.50
2017-10-18T15:12:42.545Z,17.50
2017-10-18T15:15:10.345Z,17.50
2017-10-18T15:17:37.900Z,17.50
2017-10-18T15:20:05.492Z,17.40
2017-10-18T15:22:33.046Z,17.40
2017-10-18T15:25:01.378Z,17.40
2017-10-18T15:27:28.996Z,17.40
2017-10-18T15:29:57.338Z,17.30
2017-10-18T15:32:24.960Z,17.30
2017-10-18T15:34:52.527Z,17.30
2017-10-18T15:37:20.084Z,17.20
2017-10-18T15:39:47.695Z,17.20
2017-10-18T15:42:17.555Z,17.20
2017-10-18T15:44:45.182Z,17.10
2017-10-18T15:47:12.733Z,17.10
2017-10-18T15:49:41.076Z,17.10
2017-10-18T15:52:08.674Z,17.00
2017-10-18T15:54:37.008Z,17.00
2017-10-18T15:57:05.534Z,16.90
2017-10-18T15:59:33.153Z,16.90
2017-10-18T16:02:00.734Z,16.90
2017-10-18T16:04:28.366Z,16.80
2017-10-18T16:06:55.935Z,16.80
2017-10-18T16:09:23.921Z,16.80
2017-10-18T16:11:51.766Z,16.70
2017-10-18T16:14:19.490Z,16.70
2017-10-18T16:16:47.861Z,16.60
2017-10-18T16:19:15.496Z,16.60
2017-10-18T16:21:43.111Z,16.50
2017-10-18T16:24:10.678Z,16.50
2017-10-18T16:26:38.236Z,16.40
2017-10-18T16:29:05.837Z,16.40
2017-10-18T16:31:33.406Z,16.30
2017-10-18T16:34:01.048Z,16.30
2017-10-18T16:36:28.627Z,16.30
2017-10-18T16:38:56.991Z,16.20
2017-10-18T16:41:24.900Z,16.20
2017-10-18T16:43:52.483Z,16.20
2017-10-18T16:46:20.382Z,16.20
2017-10-18T16:48:47.963Z,16.20
2017-10-18T16:51:16.288Z,16.20
2017-10-18T16:53:43.894Z,16.20
2017-10-18T16:56:12.350Z,16.20
2017-10-18T16:58:40.613Z,16.10
2017-10-18T17:01:08.165Z,16.10
2017-10-18T17:03:35.772Z,16.10
2017-10-18T17:06:04.611Z,16.10
2017-10-18T17:08:33.180Z,16.00
2017-10-18T17:11:02.295Z,16.00
2017-10-18T17:13:29.869Z,16.00
2017-10-18T17:15:57.478Z,16.00
2017-10-18T17:18:25.853Z,15.90
2017-10-18T17:20:56.529Z,15.90
2017-10-18T17:23:26.736Z,15.90
2017-10-18T17:25:54.325Z,15.90
2017-10-18T17:28:27.409Z,15.90
2017-10-18T17:30:56.802Z,15.80
2017-10-18T17:33:27.430Z,15.80
2017-10-18T17:35:55.322Z,15.80
2017-10-18T17:38:24.932Z,15.80
2017-10-18T17:40:53.699Z,15.70
2017-10-18T17:43:25.878Z,15.70
2017-10-18T17:45:55.599Z,15.70
2017-10-18T17:48:23.225Z,15.70
2017-10-18T17:50:55.667Z,15.60
2017-10-18T17:53:23.518Z,15.60
2017-10-18T17:55:51.115Z,15.60
2017-10-18T17:58:18.695Z,15.50
2017-10-18T18:00:46.566Z,15.50
2017-10-18T18:03:14.158Z,15.50
2017-10-18T18:05:41.905Z,15.50
2017-10-18T18:08:09.510Z,15.40
2017-10-18T18:10:37.907Z,15.40
2017-10-18T18:13:07.052Z,15.40
2017-10-18T18:15:34.780Z,15.30
2017-10-18T18:18:02.433Z,15.30
2017-10-18T18:20:30.179Z,15.30
2017-10-18T18:22:58.821Z,15.30
2017-10-18T18:25:27.684Z,15.20
2017-10-18T18:27:55.491Z,15.20
2017-10-18T18:30:23.720Z,15.20
2017-10-18T18:32:51.382Z,15.20
2017-10-18T18:35:19.298Z,15.10
2017-10-18T18:37:46.893Z,15.10
2017-10-18T18:40:14.468Z,15.10
2017-10-18T18:42:42.102Z,15.10
2017-10-18T18:45:09.716Z,15.10
2017-10-18T18:47:37.399Z,15.10
2017-10-18T18:50:06.481Z,15.10
2017-10-18T18:52:35.158Z,15.00
2017-10-18T18:55:02.759Z,15.00
2017-10-18T18:57:30.358Z,15.00
2017-10-18T18:59:58.567Z,15.00
2017-10-18T19:02:26.146Z,14.90
2017-10-18T19:04:58.067Z,14.90
2017-10-18T19:07:25.662Z,14.90
2017-10-18T19:09:54.382Z,14.90
2017-10-18T19:12:23.742Z,14.90
2017-10-18T19:14:57.817Z,14.80
2017-10-18T19:17:28.014Z,14.80
2017-10-18T19:19:56.542Z,14.80
2017-10-18T19:22:27.085Z,14.70
2017-10-18T19:25:00.259Z,14.70
2017-10-18T19:27:34.127Z,14.70
2017-10-18T19:30:04.342Z,14.70
2017-10-18T19:32:32.963Z,14.70
2017-10-18T19:35:00.951Z,14.60
2017-10-18T19:37:28.658Z,14.60
2017-10-18T19:39:56.309Z,14.60
2017-10-18T19:42:24.235Z,14.60
2017-10-18T19:44:52.746Z,14.60
2017-10-18T19:47:20.400Z,14.50
2017-10-18T19:49:48.015Z,14.50
2017-10-18T19:52:15.663Z,14.50
2017-10-18T19:54:43.346Z,14.50
2017-10-18T19:57:10.923Z,14.50
2017-10-18T19:59:39.049Z,14.50
2017-10-18T20:02:06.678Z,14.40
2017-10-18T20:04:35.827Z,14.40
2017-10-18T20:07:04.050Z,14.40
2017-10-18T20:09:31.630Z,14.40
2017-10-18T20:11:59.271Z,14.30
2017-10-18T20:14:26.870Z,14.40
2017-10-18T20:16:54.965Z,14.30
2017-10-18T20:19:22.562Z,14.30
2017-10-18T20:21:50.168Z,14.30
2017-10-18T20:24:17.864Z,14.30
2017-10-18T20:26:45.539Z,14.30
2017-10-18T20:29:13.101Z,14.20
2017-10-18T20:31:41.590Z,14.20
2017-10-18T20:34:11.879Z,14.20
2017-10-18T20:36:39.526Z,14.20
2017-10-18T20:39:07.786Z,14.20
2017-10-18T20:41:35.414Z,14.10
2017-10-18T20:44:03.934Z,14.10
2017-10-18T20:46:31.516Z,14.10
2017-10-18T20:48:59.123Z,14.10
2017-10-18T20:51:26.799Z,14.00
2017-10-18T20:53:54.355Z,14.00
2017-10-18T20:56:22.736Z,14.00
2017-10-18T20:58:50.297Z,13.90
2017-10-18T21:01:18.625Z,13.90
2017-10-18T21:03:46.430Z,13.90
2017-10-18T21:06:14.045Z,13.80
2017-10-18T21:08:41.917Z,13.80
2017-10-18T21:11:09.470Z,13.70
2017-10-18T21:13:37.026Z,13.70
2017-10-18T21:16:04.722Z,13.60
2017-10-18T21:18:33.088Z,13.60
2017-10-18T21:21:00.697Z,13.60
2017-10-18T21:23:28.254Z,13.50
2017-10-18T21:25:55.834Z,13.50
2017-10-18T21:28:23.414Z,13.50
2017-10-18T21:30:50.991Z,13.50
2017-10-18T21:33:18.820Z,13.50
2017-10-18T21:35:46.358Z,13.50
2017-10-18T21:38:13.918Z,13.40
2017-10-18T21:40:41.569Z,13.30
2017-10-18T21:43:09.894Z,13.30
2017-10-18T21:45:37.498Z,13.30
2017-10-18T21:48:05.820Z,13.20
2017-10-18T21:50:33.377Z,13.20
2017-10-18T21:53:00.994Z,13.20
2017-10-18T21:55:28.601Z,13.20
2017-10-18T21:57:56.230Z,13.10
2017-10-18T22:00:23.827Z,13.10
2017-10-18T22:02:51.385Z,13.10
2017-10-18T22:05:20.486Z,13.00
2017-10-18T22:07:48.052Z,13.00
2017-10-18T22:10:16.429Z,13.00
2017-10-18T22:12:44.779Z,13.00
2017-10-18T22:15:12.352Z,13.00
2017-10-18T22:17:39.975Z,13.00
2017-10-18T22:20:08.313Z,13.00
2017-10-18T22:22:35.918Z,13.00
2017-10-18T22:25:04.231Z,13.00
2017-10-18T22:27:31.795Z,13.00
2017-10-18T22:29:59.872Z,13.00
2017-10-18T22:32:28.091Z,12.90
2017-10-18T22:34:56.140Z,12.90
2017-10-18T22:37:25.216Z,12.90
2017-10-18T22:39:52.980Z,12.90
2017-10-18T22:42:20.565Z,12.90
2017-10-18T22:44:48.134Z,12.80
2017-10-18T22:47:16.177Z,12.80
2017-10-18T22:49:43.737Z,12.80
2017-10-18T22:52:11.660Z,12.80
2017-10-18T22:54:39.285Z,12.70
2017-10-18T22:57:08.406Z,12.70
2017-10-18T22:59:36.013Z,12.70
2017-10-18T23:02:03.562Z,12.70
2017-10-18T23:04:31.131Z,12.70
2017-10-18T23:06:58.718Z,12.70
2017-10-18T23:09:26.281Z,12.60
2017-10-18T23:11:54.639Z,12.60
2017-10-18T23:14:22.185Z,12.60
2017-10-18T23:16:49.742Z,12.60
2017-10-18T23:19:18.833Z,12.50
2017-10-18T23:21:46.394Z,12.50
2017-10-18T23:24:13.992Z,12.50
2017-10-18T23:26:41.547Z,12.50
2017-10-18T23:29:09.866Z,12.50
2017-10-18T23:31:37.471Z,12.50
2017-10-18T23:34:05.777Z,12.40
2017-10-18T23:36:33.574Z,12.40
2017-10-18T23:39:01.100Z,12.40
2017-10-18T23:41:28.654Z,12.40
2017-10-18T23:43:56.260Z,12.40
2017-10-18T23:46:23.809Z,12.40
2017-10-18T23:48:51.403Z,12.30
2017-10-18T23:51:18.964Z,12.30
2017-10-18T23:53:46.512Z,12.30
2017-10-18T23:56:14.152Z,12.30
2017-10-18T23:58:41.711Z,12.30
